Time;durP1;ratioP1;P1;durP2;ratioP2;P2;SDS_P1;SDS_P2;PMS_P1;PMS_P2;Temp;Humidity;BMP_temperature;BMP_pressure;BME280_temperature;BME280_humidity;BME280_pressure;Samples;Min_cycle;Max_cycle;Signal;HPM_P1;HPM_P2
2022/04/07 00:00:39;;;;;;;8.85;4.80;;;;;;;8.31;100.00;98817.28;6121611;23;20490;-79
2022/04/07 00:03:07;;;;;;;12.32;5.28;;;;;;;8.33;100.00;98806.75;6125500;23;20026;-79
2022/04/07 00:05:35;;;;;;;6.65;3.88;;;;;;;8.33;100.00;98809.38;6067642;23;20324;-79
2022/04/07 00:08:05;;;;;;;9.75;4.30;;;;;;;8.34;100.00;98798.00;6130232;23;20022;-80
2022/04/07 00:10:34;;;;;;;10.95;4.20;;;;;;;8.34;100.00;98787.50;6107482;23;20025;-79
2022/04/07 00:13:03;;;;;;;12.57;4.57;;;;;;;8.36;100.00;98790.97;6129696;23;20018;-78
2022/04/07 00:15:31;;;;;;;10.40;4.45;;;;;;;8.34;100.00;98777.03;6099703;23;20021;-79
2022/04/07 00:18:00;;;;;;;7.13;4.28;;;;;;;8.33;100.00;98781.38;6127699;23;20029;-79
2022/04/07 00:20:29;;;;;;;8.48;4.43;;;;;;;8.33;100.00;98767.41;6127299;23;20348;-79
2022/04/07 00:22:58;;;;;;;11.02;4.03;;;;;;;8.31;100.00;98764.81;6130679;23;20029;-78
2022/04/07 00:25:27;;;;;;;6.85;3.65;;;;;;;8.30;100.00;98768.34;6039828;23;20356;-79
2022/04/07 00:27:56;;;;;;;6.72;4.00;;;;;;;8.31;100.00;98762.19;6117415;23;20351;-79
2022/04/07 00:30:24;;;;;;;8.75;3.85;;;;;;;8.32;100.00;98752.56;6115514;23;20021;-80
2022/04/07 00:32:53;;;;;;;13.30;3.95;;;;;;;8.31;100.00;98750.81;6126132;23;20420;-78
2022/04/07 00:35:24;;;;;;;7.70;3.70;;;;;;;8.31;100.00;98738.56;6072217;23;20028;-80
2022/04/07 00:37:53;;;;;;;5.63;3.95;;;;;;;8.30;100.00;98726.34;6106427;23;20018;-79
2022/04/07 00:40:22;;;;;;;6.60;3.50;;;;;;;8.28;100.00;98728.16;6129351;23;20018;-79
2022/04/07 00:42:51;;;;;;;7.85;3.38;;;;;;;8.26;100.00;98723.81;6118678;23;20033;-79
2022/04/07 00:45:23;;;;;;;10.60;3.70;;;;;;;8.24;100.00;98717.75;6093362;23;20030;-80
2022/04/07 00:47:51;;;;;;;6.65;2.95;;;;;;;8.20;100.00;98704.69;6095629;23;20540;-78
2022/04/07 00:50:20;;;;;;;9.90;3.15;;;;;;;8.19;100.00;98713.47;6100237;23;20029;-78
2022/04/07 00:52:52;;;;;;;8.38;2.65;;;;;;;8.16;100.00;98705.63;6128940;23;20133;-80
2022/04/07 00:55:21;;;;;;;7.15;2.40;;;;;;;8.14;100.00;98703.97;6129280;23;20029;-79
2022/04/07 00:57:50;;;;;;;5.05;2.47;;;;;;;8.11;100.00;98704.00;6089793;23;20073;-79
2022/04/07 01:00:19;;;;;;;9.77;2.47;;;;;;;8.11;100.00;98694.41;6125887;23;20025;-79
2022/04/07 01:02:48;;;;;;;10.95;2.58;;;;;;;8.11;100.00;98683.91;6075852;23;20718;-79
2022/04/07 01:05:23;;;;;;;5.78;2.08;;;;;;;8.11;100.00;98680.41;6078355;23;20037;-78
2022/04/07 01:07:53;;;;;;;6.22;2.22;;;;;;;8.09;100.00;98675.22;6137000;23;20143;-78
2022/04/07 01:10:23;;;;;;;9.57;2.30;;;;;;;8.09;100.00;98661.22;6105887;23;20021;-79
2022/04/07 01:12:52;;;;;;;7.68;2.35;;;;;;;8.09;100.00;98672.59;6165995;23;20028;-80
2022/04/07 01:15:21;;;;;;;7.57;2.55;;;;;;;8.11;100.00;98662.91;6149600;23;20017;-80
2022/04/07 01:17:50;;;;;;;8.75;2.30;;;;;;;8.12;100.00;98648.03;6165466;23;20322;-79
2022/04/07 01:20:18;;;;;;;9.05;2.83;;;;;;;8.14;100.00;98649.72;6194029;23;20013;-79
2022/04/07 01:22:48;;;;;;;11.48;2.58;;;;;;;8.14;100.00;98635.75;6126123;23;20326;-79
2022/04/07 01:25:17;;;;;;;6.77;2.43;;;;;;;8.13;100.00;98641.91;6116067;23;20032;-79
2022/04/07 01:27:49;;;;;;;11.85;2.40;;;;;;;8.13;100.00;98634.03;6163808;23;20439;-79
2022/04/07 01:30:17;;;;;;;6.90;2.45;;;;;;;8.13;100.00;98634.88;6129414;23;20020;-79
2022/04/07 01:32:48;;;;;;;9.23;2.63;;;;;;;8.15;100.00;98627.00;6129996;23;20020;-79
2022/04/07 01:35:17;;;;;;;8.75;3.00;;;;;;;8.15;100.00;98632.25;6165395;23;20013;-79
2022/04/07 01:37:47;;;;;;;6.00;2.83;;;;;;;8.14;100.00;98614.75;6134793;23;20243;-79
2022/04/07 01:40:18;;;;;;;11.77;3.33;;;;;;;8.11;100.00;98609.56;6133644;23;20023;-79
2022/04/07 01:42:47;;;;;;;;;;;;;;;8.10;100.00;98605.25;6141793;23;20231;-79
2022/04/07 01:45:18;;;;;;;13.30;3.25;;;;;;;8.06;100.00;98601.81;6109929;23;20220;-79
2022/04/07 01:47:47;;;;;;;13.50;2.97;;;;;;;8.03;100.00;98593.16;6159424;23;20062;-79
2022/04/07 01:50:19;;;;;;;13.93;3.28;;;;;;;8.00;100.00;98594.09;6196832;23;20013;-79
2022/04/07 01:52:48;;;;;;;11.95;3.53;;;;;;;7.96;100.00;98593.28;6192075;23;20310;-78
2022/04/07 01:55:17;;;;;;;12.02;3.15;;;;;;;7.90;100.00;98574.19;6169402;23;20024;-78
2022/04/07 01:57:47;;;;;;;9.35;2.28;;;;;;;7.78;100.00;98576.19;6166615;23;20318;-78
2022/04/07 02:00:16;;;;;;;14.38;1.73;;;;;;;7.71;100.00;98585.13;6169283;23;20323;-78
2022/04/07 02:02:47;;;;;;;8.05;2.40;;;;;;;7.67;100.00;98570.31;6134429;23;20020;-80
2022/04/07 02:05:16;;;;;;;11.50;2.35;;;;;;;7.64;100.00;98562.53;6109666;23;20027;-79
2022/04/07 02:07:47;;;;;;;9.73;3.08;;;;;;;7.65;100.00;98556.38;6128184;23;20025;-78
2022/04/07 02:10:16;;;;;;;11.38;3.40;;;;;;;7.66;100.00;98568.63;6168586;23;20020;-79
2022/04/07 02:12:44;;;;;;;11.35;3.05;;;;;;;7.67;100.00;98567.69;6165021;23;20693;-79
2022/04/07 02:15:13;;;;;;;15.63;3.85;;;;;;;7.69;100.00;98555.41;6167064;23;20024;-79
2022/04/07 02:17:41;;;;;;;13.52;3.90;;;;;;;7.70;100.00;98549.28;6091239;23;20431;-79
2022/04/07 02:20:10;;;;;;;9.00;3.85;;;;;;;7.70;100.00;98538.81;6083848;23;20021;-79
2022/04/07 02:22:39;;;;;;;9.68;3.83;;;;;;;7.71;100.00;98537.03;6124405;23;20243;-79
2022/04/07 02:25:08;;;;;;;10.13;3.50;;;;;;;7.69;100.00;98530.97;6119293;23;20025;-79
2022/04/07 02:27:40;;;;;;;15.50;4.00;;;;;;;7.68;100.00;98517.00;6163022;23;20017;-79
2022/04/07 02:30:11;;;;;;;16.05;3.53;;;;;;;7.67;100.00;98520.50;6106272;23;20025;-80
2022/04/07 02:32:41;;;;;;;14.35;3.20;;;;;;;7.68;100.00;98516.16;6114936;23;20025;-79
2022/04/07 02:35:11;;;;;;;11.57;3.92;;;;;;;7.69;100.00;98521.34;6141111;23;20024;-79
2022/04/07 02:37:40;;;;;;;14.68;4.05;;;;;;;7.73;100.00;98512.53;6133828;23;20031;-79
2022/04/07 02:40:08;;;;;;;16.75;4.15;;;;;;;7.74;100.00;98501.13;6186032;23;20028;-79
2022/04/07 02:42:37;;;;;;;12.85;3.50;;;;;;;7.76;100.00;98494.09;6186828;23;20016;-79
2022/04/07 02:45:08;;;;;;;15.32;4.20;;;;;;;7.79;100.00;98487.94;6164571;23;20463;-79
2022/04/07 02:47:38;;;;;;;17.83;4.45;;;;;;;7.83;100.00;98480.88;6108523;23;20337;-79
2022/04/07 02:50:07;;;;;;;15.07;4.90;;;;;;;7.83;100.00;98488.72;6153856;23;20017;-79
2022/04/07 02:52:35;;;;;;;18.83;4.15;;;;;;;7.84;100.00;98479.94;6139259;23;20036;-79
2022/04/07 02:55:05;;;;;;;18.13;4.43;;;;;;;7.83;100.00;98468.59;6161829;23;20025;-79
2022/04/07 02:57:34;;;;;;;12.35;3.20;;;;;;;7.85;100.00;98463.34;6151559;23;20040;-79
2022/04/07 03:00:04;;;;;;;15.07;3.55;;;;;;;7.87;100.00;98453.66;6106573;23;20078;-78
2022/04/07 03:02:32;;;;;;;15.27;3.47;;;;;;;7.89;100.00;98444.84;6135228;23;20077;-79
2022/04/07 03:05:01;;;;;;;18.27;4.35;;;;;;;7.89;100.00;98442.22;6122717;23;20028;-78
2022/04/07 03:07:30;;;;;;;25.70;3.88;;;;;;;7.89;100.00;98438.75;6141589;23;20025;-79
2022/04/07 03:09:58;;;;;;;19.33;4.50;;;;;;;7.87;100.00;98417.81;6137346;23;20021;-78
2022/04/07 03:12:26;;;;;;;17.48;4.80;;;;;;;7.86;100.00;98407.34;6127472;23;20017;-79
2022/04/07 03:14:55;;;;;;;17.40;5.30;;;;;;;7.86;100.00;98402.97;6153442;23;20032;-79
2022/04/07 03:17:23;;;;;;;19.13;5.38;;;;;;;7.85;100.00;98395.16;6158953;23;20017;-79
2022/04/07 03:19:52;;;;;;;16.15;3.85;;;;;;;7.85;100.00;98392.53;6118766;23;20572;-78
2022/04/07 03:22:20;;;;;;;24.52;5.10;;;;;;;7.86;100.00;98373.28;6115044;23;20017;-78
2022/04/07 03:24:49;;;;;;;23.17;5.75;;;;;;;7.86;100.00;98366.25;6101596;23;20024;-78
2022/04/07 03:27:19;;;;;;;13.18;4.80;;;;;;;7.86;100.00;98363.63;6105918;23;20032;-79
2022/04/07 03:29:47;;;;;;;11.48;4.65;;;;;;;7.85;100.00;98356.69;6163921;23;20314;-79
2022/04/07 03:32:16;;;;;;;12.77;4.50;;;;;;;7.84;100.00;98348.84;6077885;23;20017;-79
2022/04/07 03:34:44;;;;;;;14.00;4.25;;;;;;;7.85;100.00;98333.09;6118072;23;20143;-78
2022/04/07 03:37:14;;;;;;;12.98;4.60;;;;;;;7.86;100.00;98333.94;6156937;23;20344;-79
2022/04/07 03:39:43;;;;;;;16.90;4.78;;;;;;;7.86;100.00;98339.19;6161767;23;20963;-78
2022/04/07 03:42:11;;;;;;;11.88;4.22;;;;;;;7.87;100.00;98333.91;6158114;23;20021;-79
2022/04/07 03:44:40;;;;;;;16.25;4.60;;;;;;;7.89;100.00;98328.63;6079377;23;20277;-79
2022/04/07 03:47:08;;;;;;;18.65;4.30;;;;;;;7.92;100.00;98315.41;6151725;23;20025;-78
2022/04/07 03:49:36;;;;;;;15.63;4.65;;;;;;;7.92;100.00;98316.31;6124042;23;20024;-78
2022/04/07 03:52:05;;;;;;;13.85;3.95;;;;;;;7.94;100.00;98301.38;6164728;23;20017;-79
2022/04/07 03:54:34;;;;;;;12.25;4.13;;;;;;;7.96;100.00;98319.72;6151437;23;20251;-79
2022/04/07 03:57:03;;;;;;;15.73;4.05;;;;;;;7.97;100.00;98303.06;6137779;23;20021;-78
2022/04/07 03:59:37;;;;;;;12.73;3.90;;;;;;;7.97;100.00;98308.28;6161870;23;20347;-78
2022/04/07 04:02:06;;;;;;;10.30;3.55;;;;;;;7.97;100.00;98303.06;6163169;23;20473;-78
2022/04/07 04:04:36;;;;;;;14.30;3.70;;;;;;;7.96;100.00;98293.47;6146633;23;20204;-78
2022/04/07 04:07:04;;;;;;;12.82;3.88;;;;;;;7.95;100.00;98292.59;6177858;23;20025;-78
2022/04/07 04:09:33;;;;;;;15.45;4.40;;;;;;;7.95;100.00;98281.25;6131317;23;20036;-79
2022/04/07 04:12:03;;;;;;;13.63;3.17;;;;;;;7.96;100.00;98277.75;6123352;23;20017;-78
2022/04/07 04:14:31;;;;;;;10.65;3.17;;;;;;;7.94;100.00;98267.28;6098854;23;20017;-79
2022/04/07 04:17:00;;;;;;;7.13;3.00;;;;;;;7.90;100.00;98260.41;6075777;23;20022;-79
2022/04/07 04:19:28;;;;;;;13.20;2.90;;;;;;;7.93;100.00;98267.31;6095500;23;20025;-78
2022/04/07 04:21:57;;;;;;;9.13;2.92;;;;;;;7.91;100.00;98270.00;6090414;23;20022;-78
2022/04/07 04:24:25;;;;;;;12.95;4.05;;;;;;;7.89;100.00;98257.84;6063794;23;20022;-79
2022/04/07 04:27:00;;;;;;;14.95;4.00;;;;;;;7.89;100.00;98248.19;6128219;23;20021;-79
2022/04/07 04:29:28;;;;;;;17.80;4.03;;;;;;;7.86;100.00;98239.56;6095742;23;20021;-78
2022/04/07 04:31:57;;;;;;;17.40;3.97;;;;;;;7.85;100.00;98236.06;6070170;23;20018;-79
2022/04/07 04:34:25;;;;;;;16.77;3.95;;;;;;;7.83;100.00;98223.91;6096150;23;20022;-79
2022/04/07 04:36:54;;;;;;;17.52;3.58;;;;;;;7.84;100.00;98220.38;6068234;23;20025;-79
2022/04/07 04:39:24;;;;;;;17.70;4.07;;;;;;;7.83;100.00;98211.66;6111970;23;20021;-79
2022/04/07 04:41:52;;;;;;;18.55;3.80;;;;;;;7.82;100.00;98217.78;6125303;23;20154;-79
2022/04/07 04:44:21;;;;;;;10.45;3.47;;;;;;;7.83;100.00;98202.94;6072893;23;20021;-79
2022/04/07 04:46:53;;;;;;;14.10;3.80;;;;;;;7.80;100.00;98196.84;6078474;23;20204;-79
2022/04/07 04:49:21;;;;;;;19.27;4.07;;;;;;;7.79;100.00;98197.78;6062474;23;20029;-79
2022/04/07 04:51:50;;;;;;;14.70;4.57;;;;;;;7.79;100.00;98179.44;6119148;23;20460;-80
2022/04/07 04:54:18;;;;;;;14.40;3.85;;;;;;;7.78;100.00;98171.59;6070325;23;20155;-79
2022/04/07 04:56:47;;;;;;;15.73;4.03;;;;;;;7.78;100.00;98169.84;6091934;23;20523;-79
2022/04/07 04:59:16;;;;;;;17.65;4.20;;;;;;;7.77;100.00;98159.41;6115596;23;20364;-78
2022/04/07 05:01:44;;;;;;;14.13;3.83;;;;;;;7.76;100.00;98153.28;6108198;23;20018;-78
2022/04/07 05:04:13;;;;;;;14.60;3.42;;;;;;;7.78;100.00;98154.09;6100865;23;20027;-78
2022/04/07 05:06:42;;;;;;;16.17;4.65;;;;;;;7.78;100.00;98151.47;6083482;23;20480;-78
2022/04/07 05:09:10;;;;;;;16.83;4.47;;;;;;;7.79;100.00;98168.94;6044641;23;20503;-79
2022/04/07 05:11:39;;;;;;;17.40;3.97;;;;;;;7.79;100.00;98168.94;6043824;23;20041;-79
2022/04/07 05:14:07;;;;;;;10.98;2.95;;;;;;;7.78;100.00;98171.59;6008459;23;20025;-78
2022/04/07 05:16:36;;;;;;;20.67;3.97;;;;;;;7.77;100.00;98162.03;6101002;23;21605;-78
2022/04/07 05:19:05;;;;;;;15.00;3.85;;;;;;;7.76;100.00;98155.91;6115353;23;20024;-78
2022/04/07 05:21:33;;;;;;;16.13;3.60;;;;;;;7.76;100.00;98152.44;6124170;23;20026;-78
2022/04/07 05:24:01;;;;;;;20.80;5.03;;;;;;;7.75;100.00;98119.25;6104850;23;20456;-78
2022/04/07 05:26:30;;;;;;;15.25;3.67;;;;;;;7.74;100.00;98109.69;6096561;23;20018;-79
2022/04/07 05:28:58;;;;;;;20.02;4.78;;;;;;;7.71;100.00;98104.50;6096186;23;20057;-78
2022/04/07 05:31:27;;;;;;;15.32;4.30;;;;;;;7.68;100.00;98117.72;6060729;23;20029;-79
2022/04/07 05:33:56;;;;;;;17.70;4.40;;;;;;;7.67;100.00;98124.72;6093303;23;20325;-78
2022/04/07 05:36:26;;;;;;;20.42;3.95;;;;;;;7.61;100.00;98130.13;6061487;23;20223;-78
2022/04/07 05:38:54;;;;;;;12.32;3.65;;;;;;;7.57;100.00;98118.03;6116477;23;20025;-78
2022/04/07 05:41:23;;;;;;;10.77;2.90;;;;;;;7.46;100.00;98134.03;6118278;23;20388;-79
2022/04/07 05:43:52;;;;;;;8.38;2.67;;;;;;;7.23;100.00;98135.53;6089488;23;20325;-79
2022/04/07 05:46:20;;;;;;;5.03;1.50;;;;;;;7.06;100.00;98134.25;6092852;23;20228;-79
2022/04/07 05:48:49;;;;;;;2.60;1.27;;;;;;;6.81;100.00;98135.75;6119503;23;20018;-79
2022/04/07 05:51:17;;;;;;;4.95;1.63;;;;;;;6.62;100.00;98153.66;6084399;23;20388;-79
2022/04/07 05:53:46;;;;;;;4.03;1.40;;;;;;;6.48;100.00;98147.03;6129007;23;20025;-79
2022/04/07 05:56:14;;;;;;;3.70;1.50;;;;;;;6.23;100.00;98151.06;6109555;23;20026;-79
2022/04/07 05:58:42;;;;;;;4.00;1.25;;;;;;;6.07;100.00;98140.97;6123391;23;20358;-79
2022/04/07 06:01:11;;;;;;;4.28;1.50;;;;;;;5.98;100.00;98134.19;6085315;23;20207;-79
2022/04/07 06:03:40;;;;;;;7.07;1.88;;;;;;;5.91;100.00;98119.50;6118931;23;20028;-78
2022/04/07 06:06:09;;;;;;;7.57;2.00;;;;;;;5.88;100.00;98124.78;6073672;23;20026;-79
2022/04/07 06:08:37;;;;;;;2.78;1.38;;;;;;;5.83;100.00;98128.38;6073036;23;20026;-78
2022/04/07 06:11:09;;;;;;;3.58;1.50;;;;;;;5.79;100.00;98125.88;6099648;23;20022;-78
2022/04/07 06:13:38;;;;;;;8.23;2.65;;;;;;;5.76;100.00;98132.00;6151761;23;20026;-79
2022/04/07 06:16:07;;;;;;;6.55;1.75;;;;;;;5.77;100.00;98151.16;6143636;23;20630;-80
2022/04/07 06:18:35;;;;;;;7.78;2.30;;;;;;;5.74;100.00;98153.84;6117123;23;20029;-79
2022/04/07 06:21:04;;;;;;;5.80;1.70;;;;;;;5.70;100.00;98165.25;6123600;23;20033;-78
2022/04/07 06:23:35;;;;;;;6.25;2.08;;;;;;;5.59;100.00;98147.16;6074208;23;20014;-78
2022/04/07 06:26:05;;;;;;;10.25;1.63;;;;;;;5.46;100.00;98155.25;6098484;23;20025;-78
2022/04/07 06:28:33;;;;;;;8.10;2.30;;;;;;;5.42;100.00;98137.91;6102612;23;20029;-78
2022/04/07 06:31:02;;;;;;;9.80;2.17;;;;;;;5.28;100.00;98103.38;6110198;23;20030;-78
2022/04/07 06:33:31;;;;;;;5.07;1.63;;;;;;;5.20;100.00;98111.34;6127542;23;20021;-79
2022/04/07 06:36:20;;;;;;;2.08;1.20;;;;;;;5.17;100.00;98089.66;6126791;23;20029;-79
2022/04/07 06:38:48;;;;;;;3.38;1.10;;;;;;;5.13;100.00;98072.34;6114693;23;20021;-78
2022/04/07 06:41:17;;;;;;;3.70;1.30;;;;;;;5.11;100.00;98061.06;6077298;23;20064;-79
2022/04/07 06:43:45;;;;;;;4.47;1.45;;;;;;;5.10;100.00;98056.72;6111046;23;20018;-79
2022/04/07 06:46:13;;;;;;;5.28;1.38;;;;;;;5.12;100.00;98060.16;6147078;23;20021;-79
2022/04/07 06:48:43;;;;;;;6.65;1.30;;;;;;;5.12;100.00;98050.56;6107881;23;20037;-79
2022/04/07 06:51:14;;;;;;;4.90;1.43;;;;;;;5.11;100.00;98046.25;6112975;23;20030;-78
2022/04/07 06:53:42;;;;;;;6.25;1.90;;;;;;;5.12;100.00;98042.75;6063238;23;20033;-78
2022/04/07 06:56:11;;;;;;;5.15;1.75;;;;;;;5.13;100.00;98044.47;6052621;23;20220;-78
2022/04/07 06:58:39;;;;;;;3.65;1.23;;;;;;;5.15;100.00;98029.66;6117032;23;20022;-78
2022/04/07 07:01:19;;;;;;;6.57;1.92;;;;;;;5.17;100.00;98017.41;6091894;23;20022;-77
2022/04/07 07:03:48;;;;;;;5.03;1.85;;;;;;;5.15;100.00;98029.66;6140584;23;20029;-78
2022/04/07 07:06:16;;;;;;;4.40;1.40;;;;;;;5.08;100.00;98021.09;6126016;23;20021;-78
2022/04/07 07:08:46;;;;;;;4.55;1.10;;;;;;;5.06;100.00;98007.19;6121466;23;20499;-78
2022/04/07 07:11:14;;;;;;;1.67;1.20;;;;;;;5.05;100.00;98033.34;6067890;23;20334;-78
2022/04/07 07:13:43;;;;;;;7.35;1.40;;;;;;;5.03;100.00;98015.09;6123292;23;20029;-78
2022/04/07 07:16:11;;;;;;;4.03;1.73;;;;;;;5.04;100.00;98008.97;6076653;23;20441;-78
2022/04/07 07:18:42;;;;;;;4.43;1.30;;;;;;;5.06;100.00;98003.72;6069417;23;20026;-78
2022/04/07 07:21:10;;;;;;;5.85;1.55;;;;;;;5.07;100.00;98001.09;6068890;23;20025;-77
2022/04/07 07:23:39;;;;;;;2.80;1.20;;;;;;;5.10;100.00;97994.09;6124824;23;20440;-78
2022/04/07 07:26:08;;;;;;;1.60;1.50;;;;;;;5.12;100.00;97969.66;6059700;23;20348;-77
2022/04/07 07:28:36;;;;;;;1.75;1.10;;;;;;;5.16;100.00;97965.22;6101301;23;20025;-79
2022/04/07 07:31:07;;;;;;;4.00;1.55;;;;;;;5.14;100.00;97967.91;6079367;23;20077;-78
2022/04/07 07:33:35;;;;;;;2.03;1.20;;;;;;;5.14;100.00;97952.25;6067156;23;20347;-78
2022/04/07 07:36:04;;;;;;;2.97;1.13;;;;;;;5.18;100.00;97937.34;6091852;23;20014;-79
2022/04/07 07:38:33;;;;;;;1.73;0.98;;;;;;;5.23;100.00;97959.00;6016934;23;20036;-78
2022/04/07 07:41:02;;;;;;;2.70;1.05;;;;;;;5.22;100.00;97958.16;6118125;23;20029;-78
2022/04/07 07:43:30;;;;;;;4.55;1.17;;;;;;;5.23;100.00;97961.59;6123406;23;20475;-78
2022/04/07 07:45:59;;;;;;;1.60;1.10;;;;;;;5.22;100.00;97978.19;6109286;23;20022;-79
2022/04/07 07:48:28;;;;;;;4.32;1.10;;;;;;;5.21;100.00;97955.56;6122420;23;20022;-79
2022/04/07 07:50:58;;;;;;;3.92;1.20;;;;;;;5.20;100.00;97965.16;6111331;23;20022;-78
2022/04/07 07:53:26;;;;;;;1.85;1.15;;;;;;;5.23;100.00;97944.19;6122367;23;20014;-78
2022/04/07 07:55:58;;;;;;;5.68;1.50;;;;;;;5.26;100.00;97932.84;6063333;23;20460;-79
2022/04/07 07:58:26;;;;;;;1.88;0.90;;;;;;;5.30;100.00;97944.91;6075532;23;20227;-79
2022/04/07 08:00:56;;;;;;;3.38;1.20;;;;;;;5.36;100.00;97943.94;6102653;23;20329;-79
2022/04/07 08:03:24;;;;;;;3.67;1.50;;;;;;;5.40;100.00;97935.97;6123911;23;20022;-79
2022/04/07 08:05:53;;;;;;;1.75;1.17;;;;;;;5.42;100.00;97949.84;6118273;23;20542;-79
2022/04/07 08:08:21;;;;;;;0.90;0.90;;;;;;;5.43;100.00;97943.75;6069497;23;20026;-79
2022/04/07 08:10:50;;;;;;;4.45;1.63;;;;;;;5.47;100.00;97937.56;6096497;23;20029;-79
2022/04/07 08:13:18;;;;;;;4.03;1.20;;;;;;;5.50;100.00;97927.94;6073310;23;20372;-79
2022/04/07 08:15:47;;;;;;;4.30;1.25;;;;;;;5.56;100.00;97939.13;6076013;23;20024;-78
2022/04/07 08:18:15;;;;;;;4.50;1.67;;;;;;;5.67;100.00;97925.78;6081954;23;20018;-79
2022/04/07 08:20:44;;;;;;;3.40;1.70;;;;;;;5.81;100.00;97915.88;6101646;23;20033;-78
2022/04/07 08:23:12;;;;;;;5.10;1.60;;;;;;;5.89;100.00;97912.22;6069040;23;20229;-79
2022/04/07 08:25:41;;;;;;;3.33;1.40;;;;;;;5.98;100.00;97912.00;6077774;23;20022;-79
2022/04/07 08:28:10;;;;;;;3.40;1.60;;;;;;;6.03;100.00;97912.72;6093315;23;20071;-79
2022/04/07 08:30:41;;;;;;;4.07;1.48;;;;;;;6.25;100.00;97916.50;6102290;23;20075;-79
2022/04/07 08:33:10;;;;;;;3.83;1.60;;;;;;;6.63;100.00;97909.41;6059747;23;20033;-79
2022/04/07 08:35:38;;;;;;;8.27;1.40;;;;;;;6.90;100.00;97917.38;6102017;23;20444;-79
2022/04/07 08:38:09;;;;;;;3.85;1.50;;;;;;;7.11;100.00;97915.88;6064492;23;20018;-79
2022/04/07 08:40:39;;;;;;;3.95;1.23;;;;;;;7.34;100.00;97909.94;6125018;23;20478;-79
2022/04/07 08:43:08;;;;;;;2.42;1.30;;;;;;;7.61;100.00;97928.34;6071488;23;20022;-79
2022/04/07 08:45:37;;;;;;;2.90;1.20;;;;;;;7.76;100.00;97924.38;6125957;23;20025;-79
2022/04/07 08:48:09;;;;;;;3.47;1.33;;;;;;;7.98;100.00;97916.69;6049206;23;20349;-79
2022/04/07 08:50:42;;;;;;;2.78;1.20;;;;;;;8.05;100.00;97912.91;6118447;23;20018;-79
2022/04/07 08:53:12;;;;;;;4.57;1.02;;;;;;;8.24;100.00;97918.44;6118954;23;20025;-79
2022/04/07 08:55:41;;;;;;;5.18;1.17;;;;;;;8.39;100.00;97909.13;6118964;23;20025;-79
2022/04/07 10:09:55;;;;;;;8.45;2.05;;;;;;;9.58;100.00;97813.59;5059970;28;20384;-79
2022/04/07 10:18:52;;;;;;;6.40;2.00;;;;;;;9.17;100.00;97811.75;4912739;28;20077;-82
2022/04/07 10:21:55;;;;;;;6.57;1.63;;;;;;;8.83;100.00;97816.59;5013666;28;20046;-80
2022/04/07 10:24:35;;;;;;;7.55;1.73;;;;;;;8.40;100.00;97840.03;4989201;28;20045;-80
2022/04/07 10:27:25;;;;;;;6.03;2.03;;;;;;;7.87;100.00;97841.00;5020721;28;20041;-82
2022/04/07 10:30:05;;;;;;;;;;;;;;;7.49;100.00;97830.03;5027348;28;20045;-79
2022/04/07 10:32:35;;;;;;;5.40;1.83;;;;;;;7.28;100.00;97817.59;5052575;28;20012;-82
2022/04/07 10:35:05;;;;;;;7.57;2.00;;;;;;;7.39;100.00;97813.75;4980629;28;20073;-80
2022/04/07 10:37:47;;;;;;;11.95;2.55;;;;;;;7.61;100.00;97815.66;5020719;28;20125;-80
2022/04/07 10:40:35;;;;;;;7.70;2.75;;;;;;;7.80;100.00;97803.63;5023678;28;20517;-80
2022/04/07 10:43:09;;;;;;;6.57;2.15;;;;;;;7.94;100.00;97823.25;5008710;28;20045;-80
2022/04/07 10:45:40;;;;;;;8.88;2.50;;;;;;;7.99;100.00;97840.56;5031356;28;20033;-80
2022/04/07 10:48:28;;;;;;;7.85;1.42;;;;;;;7.51;100.00;97854.41;5028958;28;20037;-80
2022/04/07 10:51:05;;;;;;;5.28;1.45;;;;;;;7.15;100.00;97869.53;5013825;28;20038;-82
2022/04/07 10:53:38;;;;;;;5.15;1.50;;;;;;;6.89;100.00;97851.97;5022410;28;20045;-83
2022/04/07 10:56:07;;;;;;;4.57;1.83;;;;;;;6.78;100.00;97847.06;5022313;28;20520;-80
2022/04/07 10:58:48;;;;;;;9.63;1.80;;;;;;;6.75;100.00;97837.53;5006861;28;20137;-81
2022/04/07 11:01:42;;;;;;;8.10;2.15;;;;;;;7.00;100.00;97835.03;4997712;28;20074;-82
2022/04/07 11:04:35;;;;;;;8.30;1.98;;;;;;;7.29;100.00;97824.56;5014351;28;20414;-82
2022/04/07 11:07:16;;;;;;;10.18;2.97;;;;;;;7.49;100.00;97818.69;5010565;28;20068;-82
2022/04/07 11:10:05;;;;;;;9.40;2.13;;;;;;;7.59;100.00;97805.22;4999646;28;20052;-82
2022/04/07 11:12:39;;;;;;;;;;;;;;;7.66;100.00;97824.22;5005147;28;20430;-82
2022/04/07 11:15:35;;;;;;;10.73;2.45;;;;;;;7.68;100.00;97819.78;5000236;28;19938;-84
2022/04/07 11:18:18;;;;;;;9.38;2.33;;;;;;;7.74;100.00;97819.56;4996066;28;20042;-80
2022/04/07 11:21:11;;;;;;;11.70;2.22;;;;;;;8.00;100.00;97808.19;4978260;28;20495;-82
2022/04/07 11:23:49;;;;;;;8.32;2.83;;;;;;;8.15;100.00;97798.94;4980052;28;20048;-81
2022/04/07 11:26:27;;;;;;;14.52;3.20;;;;;;;8.23;100.00;97813.53;5000785;28;20057;-81
2022/04/07 11:29:02;;;;;;;11.93;2.50;;;;;;;8.36;100.00;97806.94;4990863;28;20058;-80
2022/04/07 11:31:40;;;;;;;13.70;2.95;;;;;;;8.38;100.00;97815.59;4996318;28;20049;-80
2022/04/07 11:34:51;;;;;;;11.25;2.60;;;;;;;8.55;100.00;97813.25;4995759;28;20046;-81
2022/04/07 11:37:19;;;;;;;7.72;2.47;;;;;;;8.66;100.00;97804.09;4949784;28;20061;-81
2022/04/07 11:39:50;;;;;;;9.68;2.47;;;;;;;8.67;100.00;97792.69;4992738;28;20042;-81
2022/04/07 11:42:22;;;;;;;9.50;2.47;;;;;;;8.77;100.00;97792.31;5002588;28;20663;-82
2022/04/07 11:44:57;;;;;;;12.32;2.42;;;;;;;8.79;100.00;97784.38;4984028;28;20026;-81
2022/04/07 11:47:31;;;;;;;9.15;2.38;;;;;;;9.02;100.00;97793.09;4991109;28;20084;-80
2022/04/07 11:50:09;;;;;;;13.27;2.88;;;;;;;9.15;100.00;97781.22;5001088;28;20050;-81
2022/04/07 11:52:42;;;;;;;11.27;2.55;;;;;;;9.06;100.00;97776.31;5010785;28;20045;-79
2022/04/07 11:55:11;;;;;;;10.30;2.80;;;;;;;9.08;100.00;97795.50;5010497;28;20057;-79
2022/04/07 11:57:41;;;;;;;10.98;2.83;;;;;;;9.16;100.00;97777.66;4971272;28;20248;-79
2022/04/07 12:00:10;;;;;;;11.80;2.58;;;;;;;9.14;100.00;97776.88;4991658;28;20042;-80
2022/04/07 12:02:39;;;;;;;7.63;2.83;;;;;;;9.12;100.00;97791.84;4992027;28;20061;-80
2022/04/07 12:05:11;;;;;;;14.85;3.35;;;;;;;9.10;100.00;97777.91;4996326;28;20042;-80
2022/04/07 12:07:40;;;;;;;11.27;2.80;;;;;;;9.00;100.00;97785.31;4982182;28;20265;-80
2022/04/07 12:10:10;;;;;;;6.80;2.13;;;;;;;8.91;100.00;97783.88;4993931;28;20498;-80
2022/04/07 12:12:42;;;;;;;11.20;3.00;;;;;;;8.93;100.00;97776.78;4986960;28;20053;-79
2022/04/07 12:15:11;;;;;;;10.90;2.55;;;;;;;8.94;100.00;97789.03;4987656;28;20037;-79
2022/04/07 12:17:59;;;;;;;9.70;2.60;;;;;;;8.93;100.00;97800.44;4970533;28;20053;-79
2022/04/07 12:20:29;;;;;;;11.00;3.28;;;;;;;8.82;100.00;97773.72;5004583;28;20053;-79
2022/04/07 12:23:05;;;;;;;6.43;2.35;;;;;;;8.82;100.00;97765.84;4960601;28;20037;-78
2022/04/07 12:25:42;;;;;;;7.93;2.30;;;;;;;8.87;100.00;97737.66;4993900;28;20072;-80
2022/04/07 12:28:10;;;;;;;11.38;3.05;;;;;;;9.17;100.00;97737.34;4995318;28;20046;-79
2022/04/07 12:30:42;;;;;;;8.70;2.50;;;;;;;9.30;100.00;97728.03;5005897;28;20061;-80
2022/04/07 12:33:11;;;;;;;9.95;2.58;;;;;;;9.17;100.00;97711.06;4986269;28;20042;-79
2022/04/07 12:35:51;;;;;;;7.18;1.98;;;;;;;9.01;100.00;97726.59;4968694;28;20049;-80
2022/04/07 12:38:20;;;;;;;10.15;2.08;;;;;;;8.87;100.00;97833.97;4972199;28;23819;-79
2022/04/07 12:40:49;;;;;;;9.38;1.88;;;;;;;8.36;100.00;97818.28;4996402;28;20060;-79
2022/04/07 12:43:18;;;;;;;3.55;1.83;;;;;;;7.13;100.00;97835.53;4981427;28;20042;-79
2022/04/07 12:45:57;;;;;;;5.47;1.88;;;;;;;6.56;100.00;97846.81;4980248;28;20049;-79
2022/04/07 12:48:27;;;;;;;7.72;2.05;;;;;;;6.35;100.00;97828.22;4976349;28;20046;-79
2022/04/07 12:50:57;;;;;;;5.97;1.83;;;;;;;6.33;100.00;97822.19;4981102;28;20050;-79
2022/04/07 12:53:30;;;;;;;5.63;1.67;;;;;;;6.47;100.00;97808.72;4974500;28;20494;-79
2022/04/07 12:56:03;;;;;;;3.42;1.42;;;;;;;6.70;100.00;97791.47;4926372;28;20050;-79
2022/04/07 12:58:32;;;;;;;3.17;1.45;;;;;;;6.95;100.00;97792.44;5003946;28;20289;-79
2022/04/07 13:01:02;;;;;;;6.05;2.20;;;;;;;7.22;100.00;97792.44;4984120;28;20050;-79
2022/04/07 13:03:30;;;;;;;8.75;2.05;;;;;;;7.47;100.00;97782.06;4977718;28;20306;-79
2022/04/07 13:06:02;;;;;;;8.45;3.08;;;;;;;7.72;100.00;97795.19;4962949;28;20054;-79